sensor_id;sensor_type;location;lat;lon;timestamp;P1;durP1;ratioP1;P2;durP2;ratioP2
11761;SDS011;5938;47.098;15.474;2023-07-31T00:01:53;2.20;;;2.00;;
11761;SDS011;5938;47.098;15.474;2023-07-31T00:05:56;5.67;;;2.60;;
11761;SDS011;5938;47.098;15.474;2023-07-31T00:10:00;3.50;;;2.43;;
11761;SDS011;5938;47.098;15.474;2023-07-31T00:14:04;4.60;;;2.60;;
11761;SDS011;5938;47.098;15.474;2023-07-31T00:18:09;2.60;;;2.00;;
11761;SDS011;5938;47.098;15.474;2023-07-31T00:22:12;2.40;;;2.20;;
11761;SDS011;5938;47.098;15.474;2023-07-31T00:26:16;3.70;;;2.50;;
11761;SDS011;5938;47.098;15.474;2023-07-31T00:30:19;2.17;;;1.97;;
11761;SDS011;5938;47.098;15.474;2023-07-31T00:34:26;2.97;;;2.50;;
11761;SDS011;5938;47.098;15.474;2023-07-31T00:38:29;2.50;;;1.70;;
11761;SDS011;5938;47.098;15.474;2023-07-31T00:42:33;5.47;;;2.23;;
11761;SDS011;5938;47.098;15.474;2023-07-31T00:46:36;2.60;;;2.40;;
11761;SDS011;5938;47.098;15.474;2023-07-31T00:50:41;4.53;;;2.37;;
11761;SDS011;5938;47.098;15.474;2023-07-31T00:54:45;2.70;;;2.17;;
11761;SDS011;5938;47.098;15.474;2023-07-31T00:58:48;3.50;;;2.37;;
11761;SDS011;5938;47.098;15.474;2023-07-31T01:02:52;4.43;;;2.67;;
11761;SDS011;5938;47.098;15.474;2023-07-31T01:06:59;4.33;;;2.20;;
11761;SDS011;5938;47.098;15.474;2023-07-31T01:11:07;3.90;;;2.77;;
11761;SDS011;5938;47.098;15.474;2023-07-31T01:15:17;3.00;;;2.23;;
11761;SDS011;5938;47.098;15.474;2023-07-31T01:19:23;2.53;;;2.33;;
11761;SDS011;5938;47.098;15.474;2023-07-31T01:23:46;3.13;;;2.30;;
11761;SDS011;5938;47.098;15.474;2023-07-31T01:28:10;5.93;;;2.80;;
11761;SDS011;5938;47.098;15.474;2023-07-31T01:32:16;4.30;;;2.50;;
11761;SDS011;5938;47.098;15.474;2023-07-31T01:36:21;3.20;;;2.50;;
11761;SDS011;5938;47.098;15.474;2023-07-31T01:40:25;4.80;;;2.70;;
11761;SDS011;5938;47.098;15.474;2023-07-31T01:44:30;2.43;;;2.23;;
11761;SDS011;5938;47.098;15.474;2023-07-31T01:48:34;2.97;;;2.40;;
11761;SDS011;5938;47.098;15.474;2023-07-31T01:52:38;2.40;;;2.20;;
11761;SDS011;5938;47.098;15.474;2023-07-31T01:56:41;3.73;;;2.50;;
11761;SDS011;5938;47.098;15.474;2023-07-31T02:00:46;2.93;;;2.53;;
11761;SDS011;5938;47.098;15.474;2023-07-31T02:04:49;3.20;;;2.40;;
11761;SDS011;5938;47.098;15.474;2023-07-31T02:08:53;2.60;;;2.30;;
11761;SDS011;5938;47.098;15.474;2023-07-31T02:12:56;2.80;;;2.60;;
11761;SDS011;5938;47.098;15.474;2023-07-31T02:17:03;3.80;;;3.40;;
11761;SDS011;5938;47.098;15.474;2023-07-31T02:21:07;2.40;;;2.20;;
11761;SDS011;5938;47.098;15.474;2023-07-31T02:25:10;3.53;;;2.53;;
11761;SDS011;5938;47.098;15.474;2023-07-31T02:29:14;2.40;;;2.20;;
11761;SDS011;5938;47.098;15.474;2023-07-31T02:33:18;7.90;;;2.90;;
11761;SDS011;5938;47.098;15.474;2023-07-31T02:37:22;2.90;;;2.50;;
11761;SDS011;5938;47.098;15.474;2023-07-31T02:41:25;4.80;;;2.53;;
11761;SDS011;5938;47.098;15.474;2023-07-31T02:45:29;4.13;;;2.77;;
11761;SDS011;5938;47.098;15.474;2023-07-31T02:49:34;2.70;;;2.50;;
11761;SDS011;5938;47.098;15.474;2023-07-31T02:53:37;4.77;;;2.57;;
11761;SDS011;5938;47.098;15.474;2023-07-31T02:57:41;4.90;;;3.17;;
11761;SDS011;5938;47.098;15.474;2023-07-31T03:01:45;3.00;;;2.70;;
11761;SDS011;5938;47.098;15.474;2023-07-31T03:05:49;3.00;;;2.80;;
11761;SDS011;5938;47.098;15.474;2023-07-31T03:09:54;3.00;;;2.80;;
11761;SDS011;5938;47.098;15.474;2023-07-31T03:13:58;3.00;;;2.70;;
11761;SDS011;5938;47.098;15.474;2023-07-31T03:18:01;7.70;;;2.67;;
11761;SDS011;5938;47.098;15.474;2023-07-31T03:22:07;3.03;;;2.63;;
11761;SDS011;5938;47.098;15.474;2023-07-31T03:26:10;3.00;;;2.70;;
11761;SDS011;5938;47.098;15.474;2023-07-31T03:30:14;3.50;;;2.43;;
11761;SDS011;5938;47.098;15.474;2023-07-31T03:34:17;4.00;;;2.83;;
11761;SDS011;5938;47.098;15.474;2023-07-31T03:38:22;4.63;;;2.70;;
11761;SDS011;5938;47.098;15.474;2023-07-31T03:42:26;3.90;;;3.40;;
11761;SDS011;5938;47.098;15.474;2023-07-31T03:46:30;3.20;;;2.90;;
11761;SDS011;5938;47.098;15.474;2023-07-31T03:50:33;6.33;;;3.50;;
11761;SDS011;5938;47.098;15.474;2023-07-31T03:54:38;2.93;;;2.70;;
11761;SDS011;5938;47.098;15.474;2023-07-31T03:58:41;3.47;;;3.00;;
11761;SDS011;5938;47.098;15.474;2023-07-31T04:02:45;5.20;;;2.93;;
11761;SDS011;5938;47.098;15.474;2023-07-31T04:06:48;3.60;;;2.70;;
11761;SDS011;5938;47.098;15.474;2023-07-31T04:10:54;3.20;;;2.77;;
11761;SDS011;5938;47.098;15.474;2023-07-31T04:14:57;4.00;;;3.13;;
11761;SDS011;5938;47.098;15.474;2023-07-31T04:19:00;4.80;;;2.87;;
11761;SDS011;5938;47.098;15.474;2023-07-31T04:23:04;3.13;;;2.83;;
11761;SDS011;5938;47.098;15.474;2023-07-31T04:27:09;3.60;;;2.70;;
11761;SDS011;5938;47.098;15.474;2023-07-31T04:31:14;2.97;;;2.67;;
11761;SDS011;5938;47.098;15.474;2023-07-31T04:35:18;7.50;;;4.23;;
11761;SDS011;5938;47.098;15.474;2023-07-31T04:39:21;3.37;;;2.67;;
11761;SDS011;5938;47.098;15.474;2023-07-31T04:43:26;4.80;;;3.20;;
11761;SDS011;5938;47.098;15.474;2023-07-31T04:47:30;6.90;;;4.00;;
11761;SDS011;5938;47.098;15.474;2023-07-31T04:51:33;3.50;;;3.00;;
11761;SDS011;5938;47.098;15.474;2023-07-31T04:55:36;3.27;;;3.00;;
11761;SDS011;5938;47.098;15.474;2023-07-31T04:59:41;3.60;;;3.27;;
11761;SDS011;5938;47.098;15.474;2023-07-31T05:03:45;3.20;;;3.00;;
11761;SDS011;5938;47.098;15.474;2023-07-31T05:07:48;6.70;;;2.93;;
11761;SDS011;5938;47.098;15.474;2023-07-31T05:11:51;6.70;;;3.03;;
11761;SDS011;5938;47.098;15.474;2023-07-31T05:15:56;3.30;;;3.00;;
11761;SDS011;5938;47.098;15.474;2023-07-31T05:20:04;7.93;;;3.57;;
11761;SDS011;5938;47.098;15.474;2023-07-31T05:24:08;4.40;;;3.13;;
11761;SDS011;5938;47.098;15.474;2023-07-31T05:28:12;5.33;;;3.87;;
11761;SDS011;5938;47.098;15.474;2023-07-31T05:32:17;5.10;;;3.37;;
11761;SDS011;5938;47.098;15.474;2023-07-31T05:36:21;6.00;;;3.80;;
11761;SDS011;5938;47.098;15.474;2023-07-31T05:40:25;6.33;;;3.30;;
11761;SDS011;5938;47.098;15.474;2023-07-31T05:44:30;4.50;;;3.27;;
11761;SDS011;5938;47.098;15.474;2023-07-31T05:48:34;3.30;;;3.00;;
11761;SDS011;5938;47.098;15.474;2023-07-31T05:52:38;7.43;;;4.03;;
11761;SDS011;5938;47.098;15.474;2023-07-31T05:56:41;6.15;;;3.20;;
11761;SDS011;5938;47.098;15.474;2023-07-31T06:00:45;5.90;;;3.00;;
11761;SDS011;5938;47.098;15.474;2023-07-31T06:04:50;3.83;;;3.53;;
11761;SDS011;5938;47.098;15.474;2023-07-31T06:08:53;4.03;;;3.03;;
11761;SDS011;5938;47.098;15.474;2023-07-31T06:12:57;2.80;;;2.60;;
11761;SDS011;5938;47.098;15.474;2023-07-31T06:17:00;4.47;;;3.10;;
11761;SDS011;5938;47.098;15.474;2023-07-31T06:21:05;7.07;;;3.80;;
11761;SDS011;5938;47.098;15.474;2023-07-31T06:25:08;3.30;;;3.10;;
11761;SDS011;5938;47.098;15.474;2023-07-31T06:29:17;4.63;;;3.27;;
11761;SDS011;5938;47.098;15.474;2023-07-31T06:33:20;7.33;;;3.97;;
11761;SDS011;5938;47.098;15.474;2023-07-31T06:37:31;5.90;;;3.80;;
11761;SDS011;5938;47.098;15.474;2023-07-31T06:41:38;8.00;;;3.90;;
11761;SDS011;5938;47.098;15.474;2023-07-31T06:45:41;6.23;;;3.70;;
11761;SDS011;5938;47.098;15.474;2023-07-31T06:49:45;5.70;;;4.00;;
11761;SDS011;5938;47.098;15.474;2023-07-31T06:53:50;4.07;;;3.67;;
11761;SDS011;5938;47.098;15.474;2023-07-31T06:57:56;4.87;;;3.23;;
11761;SDS011;5938;47.098;15.474;2023-07-31T07:01:59;3.83;;;3.23;;
11761;SDS011;5938;47.098;15.474;2023-07-31T07:06:07;15.27;;;3.60;;
11761;SDS011;5938;47.098;15.474;2023-07-31T07:10:11;4.27;;;3.23;;
11761;SDS011;5938;47.098;15.474;2023-07-31T07:14:16;5.70;;;2.83;;
11761;SDS011;5938;47.098;15.474;2023-07-31T07:18:19;3.83;;;2.93;;
11761;SDS011;5938;47.098;15.474;2023-07-31T07:22:24;3.33;;;2.50;;
11761;SDS011;5938;47.098;15.474;2023-07-31T07:26:31;4.77;;;2.37;;
11761;SDS011;5938;47.098;15.474;2023-07-31T07:30:34;2.73;;;2.53;;
11761;SDS011;5938;47.098;15.474;2023-07-31T07:34:40;4.43;;;2.90;;
11761;SDS011;5938;47.098;15.474;2023-07-31T07:38:43;2.67;;;2.40;;
11761;SDS011;5938;47.098;15.474;2023-07-31T07:42:49;2.50;;;2.30;;
11761;SDS011;5938;47.098;15.474;2023-07-31T07:46:53;2.50;;;2.30;;
11761;SDS011;5938;47.098;15.474;2023-07-31T07:50:56;2.77;;;2.57;;
11761;SDS011;5938;47.098;15.474;2023-07-31T07:55:00;3.93;;;3.00;;
11761;SDS011;5938;47.098;15.474;2023-07-31T07:59:06;4.60;;;3.20;;
11761;SDS011;5938;47.098;15.474;2023-07-31T08:03:09;3.60;;;3.13;;
11761;SDS011;5938;47.098;15.474;2023-07-31T08:07:13;2.80;;;2.50;;
11761;SDS011;5938;47.098;15.474;2023-07-31T08:11:17;6.60;;;3.30;;
11761;SDS011;5938;47.098;15.474;2023-07-31T08:15:22;3.67;;;3.23;;
11761;SDS011;5938;47.098;15.474;2023-07-31T08:19:27;2.87;;;2.63;;
11761;SDS011;5938;47.098;15.474;2023-07-31T08:23:31;5.97;;;3.53;;
11761;SDS011;5938;47.098;15.474;2023-07-31T08:27:34;2.40;;;2.20;;
11761;SDS011;5938;47.098;15.474;2023-07-31T08:31:39;3.60;;;2.57;;
11761;SDS011;5938;47.098;15.474;2023-07-31T08:35:42;3.47;;;2.73;;
11761;SDS011;5938;47.098;15.474;2023-07-31T08:39:46;3.00;;;2.47;;
11761;SDS011;5938;47.098;15.474;2023-07-31T08:43:49;2.97;;;2.77;;
11761;SDS011;5938;47.098;15.474;2023-07-31T08:47:55;2.73;;;2.53;;
11761;SDS011;5938;47.098;15.474;2023-07-31T08:51:59;3.03;;;2.73;;
11761;SDS011;5938;47.098;15.474;2023-07-31T08:56:03;3.10;;;2.90;;
11761;SDS011;5938;47.098;15.474;2023-07-31T09:00:09;5.03;;;2.70;;
11761;SDS011;5938;47.098;15.474;2023-07-31T09:04:15;3.87;;;3.17;;
11761;SDS011;5938;47.098;15.474;2023-07-31T09:08:22;3.20;;;2.90;;
11761;SDS011;5938;47.098;15.474;2023-07-31T09:12:30;3.40;;;2.37;;
11761;SDS011;5938;47.098;15.474;2023-07-31T09:16:34;4.87;;;2.80;;
11761;SDS011;5938;47.098;15.474;2023-07-31T09:20:40;3.07;;;2.37;;
11761;SDS011;5938;47.098;15.474;2023-07-31T09:24:44;2.40;;;2.20;;
11761;SDS011;5938;47.098;15.474;2023-07-31T09:28:48;2.70;;;2.50;;
11761;SDS011;5938;47.098;15.474;2023-07-31T09:32:59;2.20;;;2.00;;
11761;SDS011;5938;47.098;15.474;2023-07-31T09:37:07;3.40;;;2.77;;
11761;SDS011;5938;47.098;15.474;2023-07-31T09:41:13;3.00;;;2.23;;
11761;SDS011;5938;47.098;15.474;2023-07-31T09:45:18;2.30;;;2.10;;
11761;SDS011;5938;47.098;15.474;2023-07-31T09:49:32;2.70;;;2.50;;
11761;SDS011;5938;47.098;15.474;2023-07-31T09:53:37;2.40;;;2.20;;
11761;SDS011;5938;47.098;15.474;2023-07-31T09:57:41;2.73;;;2.20;;
11761;SDS011;5938;47.098;15.474;2023-07-31T10:01:47;2.73;;;2.43;;
11761;SDS011;5938;47.098;15.474;2023-07-31T10:05:52;2.87;;;2.60;;
11761;SDS011;5938;47.098;15.474;2023-07-31T10:10:00;2.93;;;2.73;;
11761;SDS011;5938;47.098;15.474;2023-07-31T10:14:05;2.47;;;2.27;;
11761;SDS011;5938;47.098;15.474;2023-07-31T10:18:10;2.43;;;2.23;;
11761;SDS011;5938;47.098;15.474;2023-07-31T10:22:14;2.87;;;2.67;;
11761;SDS011;5938;47.098;15.474;2023-07-31T10:26:22;2.57;;;2.37;;
11761;SDS011;5938;47.098;15.474;2023-07-31T10:30:30;2.30;;;2.10;;
11761;SDS011;5938;47.098;15.474;2023-07-31T10:34:36;2.70;;;2.50;;
11761;SDS011;5938;47.098;15.474;2023-07-31T10:38:43;2.83;;;2.60;;
11761;SDS011;5938;47.098;15.474;2023-07-31T10:42:49;2.40;;;2.20;;
11761;SDS011;5938;47.098;15.474;2023-07-31T10:46:54;3.40;;;2.70;;
11761;SDS011;5938;47.098;15.474;2023-07-31T10:50:58;4.67;;;3.07;;
11761;SDS011;5938;47.098;15.474;2023-07-31T10:55:23;3.70;;;2.40;;
11761;SDS011;5938;47.098;15.474;2023-07-31T10:59:35;3.20;;;2.60;;
11761;SDS011;5938;47.098;15.474;2023-07-31T11:03:43;2.80;;;2.60;;
11761;SDS011;5938;47.098;15.474;2023-07-31T11:07:48;3.67;;;2.60;;
11761;SDS011;5938;47.098;15.474;2023-07-31T11:11:54;3.07;;;2.33;;
11761;SDS011;5938;47.098;15.474;2023-07-31T11:16:04;3.00;;;2.53;;
11761;SDS011;5938;47.098;15.474;2023-07-31T11:20:08;2.80;;;2.50;;
11761;SDS011;5938;47.098;15.474;2023-07-31T11:24:13;3.40;;;3.10;;
11761;SDS011;5938;47.098;15.474;2023-07-31T11:28:17;2.60;;;2.40;;
11761;SDS011;5938;47.098;15.474;2023-07-31T11:32:23;6.73;;;2.47;;
11761;SDS011;5938;47.098;15.474;2023-07-31T11:36:27;2.70;;;2.50;;
11761;SDS011;5938;47.098;15.474;2023-07-31T11:40:30;2.40;;;2.20;;
11761;SDS011;5938;47.098;15.474;2023-07-31T11:44:39;3.00;;;2.57;;
11761;SDS011;5938;47.098;15.474;2023-07-31T11:48:50;3.20;;;2.80;;
11761;SDS011;5938;47.098;15.474;2023-07-31T11:52:55;2.90;;;2.20;;
11761;SDS011;5938;47.098;15.474;2023-07-31T11:57:03;2.70;;;2.50;;
11761;SDS011;5938;47.098;15.474;2023-07-31T12:01:07;2.50;;;2.30;;
11761;SDS011;5938;47.098;15.474;2023-07-31T12:05:15;2.73;;;2.37;;
11761;SDS011;5938;47.098;15.474;2023-07-31T12:09:19;2.50;;;2.30;;
11761;SDS011;5938;47.098;15.474;2023-07-31T12:13:25;2.57;;;2.37;;
11761;SDS011;5938;47.098;15.474;2023-07-31T12:17:29;2.53;;;2.33;;
11761;SDS011;5938;47.098;15.474;2023-07-31T12:21:35;3.20;;;2.90;;
11761;SDS011;5938;47.098;15.474;2023-07-31T12:25:40;3.27;;;3.07;;
11761;SDS011;5938;47.098;15.474;2023-07-31T12:29:44;3.83;;;2.60;;
11761;SDS011;5938;47.098;15.474;2023-07-31T12:33:48;2.80;;;2.60;;
11761;SDS011;5938;47.098;15.474;2023-07-31T12:37:54;2.70;;;2.50;;
11761;SDS011;5938;47.098;15.474;2023-07-31T12:41:58;2.70;;;2.27;;
11761;SDS011;5938;47.098;15.474;2023-07-31T12:46:01;2.83;;;2.27;;
11761;SDS011;5938;47.098;15.474;2023-07-31T12:50:06;2.80;;;2.60;;
11761;SDS011;5938;47.098;15.474;2023-07-31T12:54:14;2.90;;;2.70;;
11761;SDS011;5938;47.098;15.474;2023-07-31T12:58:18;3.17;;;2.90;;
11761;SDS011;5938;47.098;15.474;2023-07-31T13:02:22;3.07;;;2.77;;
11761;SDS011;5938;47.098;15.474;2023-07-31T13:06:27;4.30;;;2.93;;
11761;SDS011;5938;47.098;15.474;2023-07-31T13:10:32;5.03;;;3.10;;
11761;SDS011;5938;47.098;15.474;2023-07-31T13:14:35;4.50;;;3.03;;
11761;SDS011;5938;47.098;15.474;2023-07-31T13:18:40;3.47;;;2.63;;
11761;SDS011;5938;47.098;15.474;2023-07-31T13:22:45;7.47;;;3.13;;
11761;SDS011;5938;47.098;15.474;2023-07-31T13:26:51;13.50;;;3.90;;
11761;SDS011;5938;47.098;15.474;2023-07-31T13:30:55;4.00;;;3.00;;
11761;SDS011;5938;47.098;15.474;2023-07-31T13:34:59;9.50;;;4.50;;
11761;SDS011;5938;47.098;15.474;2023-07-31T13:39:04;7.60;;;3.57;;
11761;SDS011;5938;47.098;15.474;2023-07-31T13:43:09;3.87;;;2.90;;
11761;SDS011;5938;47.098;15.474;2023-07-31T13:47:15;3.50;;;3.20;;
11761;SDS011;5938;47.098;15.474;2023-07-31T13:51:20;2.80;;;2.60;;
11761;SDS011;5938;47.098;15.474;2023-07-31T13:55:27;2.70;;;2.50;;
11761;SDS011;5938;47.098;15.474;2023-07-31T13:59:34;3.77;;;2.30;;
11761;SDS011;5938;47.098;15.474;2023-07-31T14:03:38;4.93;;;2.50;;
11761;SDS011;5938;47.098;15.474;2023-07-31T14:07:44;3.10;;;2.27;;
11761;SDS011;5938;47.098;15.474;2023-07-31T14:11:48;2.43;;;2.23;;
11761;SDS011;5938;47.098;15.474;2023-07-31T14:15:54;2.90;;;2.70;;
11761;SDS011;5938;47.098;15.474;2023-07-31T14:19:58;2.80;;;2.60;;
11761;SDS011;5938;47.098;15.474;2023-07-31T14:24:11;2.97;;;2.77;;
11761;SDS011;5938;47.098;15.474;2023-07-31T14:28:15;2.70;;;2.50;;
11761;SDS011;5938;47.098;15.474;2023-07-31T14:32:27;2.83;;;2.63;;
11761;SDS011;5938;47.098;15.474;2023-07-31T14:36:31;3.30;;;2.50;;
11761;SDS011;5938;47.098;15.474;2023-07-31T14:40:37;3.20;;;2.90;;
11761;SDS011;5938;47.098;15.474;2023-07-31T14:44:40;3.77;;;2.93;;
11761;SDS011;5938;47.098;15.474;2023-07-31T14:48:46;3.20;;;2.90;;
11761;SDS011;5938;47.098;15.474;2023-07-31T14:52:50;5.90;;;2.60;;
11761;SDS011;5938;47.098;15.474;2023-07-31T14:56:55;7.77;;;3.23;;
11761;SDS011;5938;47.098;15.474;2023-07-31T15:00:59;3.23;;;2.50;;
11761;SDS011;5938;47.098;15.474;2023-07-31T15:05:04;2.63;;;2.43;;
11761;SDS011;5938;47.098;15.474;2023-07-31T15:09:12;3.90;;;2.90;;
11761;SDS011;5938;47.098;15.474;2023-07-31T15:13:18;5.77;;;3.07;;
11761;SDS011;5938;47.098;15.474;2023-07-31T15:17:22;4.27;;;3.30;;
11761;SDS011;5938;47.098;15.474;2023-07-31T15:21:29;3.20;;;2.90;;
11761;SDS011;5938;47.098;15.474;2023-07-31T15:25:34;5.07;;;2.47;;
11761;SDS011;5938;47.098;15.474;2023-07-31T15:29:40;3.10;;;2.30;;
11761;SDS011;5938;47.098;15.474;2023-07-31T15:33:45;3.20;;;2.90;;
11761;SDS011;5938;47.098;15.474;2023-07-31T15:37:50;7.33;;;2.67;;
11761;SDS011;5938;47.098;15.474;2023-07-31T15:41:54;3.67;;;2.23;;
11761;SDS011;5938;47.098;15.474;2023-07-31T15:46:01;2.53;;;2.33;;
11761;SDS011;5938;47.098;15.474;2023-07-31T15:50:04;2.73;;;2.53;;
11761;SDS011;5938;47.098;15.474;2023-07-31T15:54:11;2.73;;;2.53;;
11761;SDS011;5938;47.098;15.474;2023-07-31T15:58:16;3.13;;;2.93;;
11761;SDS011;5938;47.098;15.474;2023-07-31T16:02:20;3.50;;;3.13;;
11761;SDS011;5938;47.098;15.474;2023-07-31T16:06:24;2.87;;;2.60;;
11761;SDS011;5938;47.098;15.474;2023-07-31T16:10:29;3.53;;;3.23;;
11761;SDS011;5938;47.098;15.474;2023-07-31T16:14:47;3.03;;;2.73;;
11761;SDS011;5938;47.098;15.474;2023-07-31T16:18:50;4.57;;;3.40;;
11761;SDS011;5938;47.098;15.474;2023-07-31T16:23:06;2.90;;;2.70;;
11761;SDS011;5938;47.098;15.474;2023-07-31T16:27:12;5.03;;;3.10;;
11761;SDS011;5938;47.098;15.474;2023-07-31T16:31:20;5.43;;;3.03;;
11761;SDS011;5938;47.098;15.474;2023-07-31T16:35:48;3.73;;;3.10;;
11761;SDS011;5938;47.098;15.474;2023-07-31T16:39:57;6.40;;;3.60;;
11761;SDS011;5938;47.098;15.474;2023-07-31T16:44:06;3.47;;;3.17;;
11761;SDS011;5938;47.098;15.474;2023-07-31T16:48:11;3.63;;;3.17;;
11761;SDS011;5938;47.098;15.474;2023-07-31T16:52:14;4.00;;;3.20;;
11761;SDS011;5938;47.098;15.474;2023-07-31T16:56:18;4.23;;;3.00;;
11761;SDS011;5938;47.098;15.474;2023-07-31T17:00:23;3.70;;;3.40;;
11761;SDS011;5938;47.098;15.474;2023-07-31T17:04:26;8.10;;;3.97;;
11761;SDS011;5938;47.098;15.474;2023-07-31T17:08:32;4.67;;;3.70;;
11761;SDS011;5938;47.098;15.474;2023-07-31T17:12:36;3.73;;;3.30;;
11761;SDS011;5938;47.098;15.474;2023-07-31T17:16:43;5.03;;;3.50;;
11761;SDS011;5938;47.098;15.474;2023-07-31T17:20:46;5.13;;;3.63;;
11761;SDS011;5938;47.098;15.474;2023-07-31T17:24:51;5.00;;;3.47;;
11761;SDS011;5938;47.098;15.474;2023-07-31T17:28:56;5.23;;;3.73;;
11761;SDS011;5938;47.098;15.474;2023-07-31T17:33:03;4.00;;;3.40;;
11761;SDS011;5938;47.098;15.474;2023-07-31T17:37:08;3.90;;;3.40;;
11761;SDS011;5938;47.098;15.474;2023-07-31T17:41:13;3.50;;;3.20;;
11761;SDS011;5938;47.098;15.474;2023-07-31T17:45:17;4.07;;;3.67;;
11761;SDS011;5938;47.098;15.474;2023-07-31T17:49:24;4.00;;;3.70;;
11761;SDS011;5938;47.098;15.474;2023-07-31T17:53:41;3.70;;;3.23;;
11761;SDS011;5938;47.098;15.474;2023-07-31T17:57:45;4.33;;;3.40;;
11761;SDS011;5938;47.098;15.474;2023-07-31T18:01:49;3.90;;;3.30;;
11761;SDS011;5938;47.098;15.474;2023-07-31T18:05:55;4.70;;;3.60;;
11761;SDS011;5938;47.098;15.474;2023-07-31T18:10:01;3.50;;;3.20;;
11761;SDS011;5938;47.098;15.474;2023-07-31T18:14:05;5.13;;;4.50;;
11761;SDS011;5938;47.098;15.474;2023-07-31T18:18:09;4.63;;;4.23;;
11761;SDS011;5938;47.098;15.474;2023-07-31T18:22:16;4.23;;;3.33;;
11761;SDS011;5938;47.098;15.474;2023-07-31T18:26:21;5.70;;;3.00;;
11761;SDS011;5938;47.098;15.474;2023-07-31T18:30:25;4.67;;;4.17;;
11761;SDS011;5938;47.098;15.474;2023-07-31T18:34:29;5.60;;;4.30;;
11761;SDS011;5938;47.098;15.474;2023-07-31T18:38:36;4.03;;;3.70;;
11761;SDS011;5938;47.098;15.474;2023-07-31T18:42:41;4.50;;;4.10;;
11761;SDS011;5938;47.098;15.474;2023-07-31T18:46:45;4.30;;;3.90;;
11761;SDS011;5938;47.098;15.474;2023-07-31T18:50:50;6.93;;;4.30;;
11761;SDS011;5938;47.098;15.474;2023-07-31T18:54:55;4.80;;;4.40;;
11761;SDS011;5938;47.098;15.474;2023-07-31T18:59:01;4.70;;;4.30;;
11761;SDS011;5938;47.098;15.474;2023-07-31T19:03:06;7.20;;;5.00;;
11761;SDS011;5938;47.098;15.474;2023-07-31T19:07:13;4.53;;;4.00;;
11761;SDS011;5938;47.098;15.474;2023-07-31T19:11:19;5.70;;;4.93;;
11761;SDS011;5938;47.098;15.474;2023-07-31T19:15:34;7.00;;;5.03;;
11761;SDS011;5938;47.098;15.474;2023-07-31T19:19:39;6.03;;;5.47;;
11761;SDS011;5938;47.098;15.474;2023-07-31T19:23:43;5.20;;;4.80;;
11761;SDS011;5938;47.098;15.474;2023-07-31T19:27:49;6.43;;;5.90;;
11761;SDS011;5938;47.098;15.474;2023-07-31T19:31:58;6.57;;;5.70;;
11761;SDS011;5938;47.098;15.474;2023-07-31T19:36:02;6.23;;;5.63;;
11761;SDS011;5938;47.098;15.474;2023-07-31T19:40:07;6.40;;;5.80;;
11761;SDS011;5938;47.098;15.474;2023-07-31T19:44:14;6.50;;;5.90;;
11761;SDS011;5938;47.098;15.474;2023-07-31T19:48:24;6.67;;;5.67;;
11761;SDS011;5938;47.098;15.474;2023-07-31T19:52:32;10.83;;;6.03;;
11761;SDS011;5938;47.098;15.474;2023-07-31T19:56:38;7.10;;;6.40;;
11761;SDS011;5938;47.098;15.474;2023-07-31T20:00:47;7.30;;;6.60;;
11761;SDS011;5938;47.098;15.474;2023-07-31T20:04:53;6.33;;;5.80;;
11761;SDS011;5938;47.098;15.474;2023-07-31T20:08:59;7.23;;;5.50;;
11761;SDS011;5938;47.098;15.474;2023-07-31T20:13:17;8.73;;;6.30;;
11761;SDS011;5938;47.098;15.474;2023-07-31T20:17:32;7.67;;;6.40;;
11761;SDS011;5938;47.098;15.474;2023-07-31T20:21:39;6.80;;;6.17;;
11761;SDS011;5938;47.098;15.474;2023-07-31T20:25:46;7.43;;;6.73;;
11761;SDS011;5938;47.098;15.474;2023-07-31T20:29:53;7.73;;;7.03;;
11761;SDS011;5938;47.098;15.474;2023-07-31T20:34:03;8.27;;;6.87;;
11761;SDS011;5938;47.098;15.474;2023-07-31T20:38:16;8.20;;;7.40;;
11761;SDS011;5938;47.098;15.474;2023-07-31T20:42:25;8.60;;;7.23;;
11761;SDS011;5938;47.098;15.474;2023-07-31T20:46:36;6.90;;;6.30;;
11761;SDS011;5938;47.098;15.474;2023-07-31T20:50:47;6.97;;;6.27;;
11761;SDS011;5938;47.098;15.474;2023-07-31T20:54:57;6.40;;;5.80;;
11761;SDS011;5938;47.098;15.474;2023-07-31T20:59:11;6.60;;;5.90;;
11761;SDS011;5938;47.098;15.474;2023-07-31T21:03:28;6.03;;;5.40;;
11761;SDS011;5938;47.098;15.474;2023-07-31T21:08:51;6.30;;;5.70;;
11761;SDS011;5938;47.098;15.474;2023-07-31T21:13:23;6.07;;;5.57;;
11761;SDS011;5938;47.098;15.474;2023-07-31T21:17:47;5.53;;;5.03;;
11761;SDS011;5938;47.098;15.474;2023-07-31T21:22:47;7.20;;;6.50;;
11761;SDS011;5938;47.098;15.474;2023-07-31T21:28:09;8.63;;;5.80;;
11761;SDS011;5938;47.098;15.474;2023-07-31T21:32:23;6.00;;;5.50;;
11761;SDS011;5938;47.098;15.474;2023-07-31T21:36:45;7.40;;;6.63;;
11761;SDS011;5938;47.098;15.474;2023-07-31T21:40:52;6.63;;;6.10;;
11761;SDS011;5938;47.098;15.474;2023-07-31T21:45:01;6.90;;;6.30;;
11761;SDS011;5938;47.098;15.474;2023-07-31T21:49:09;6.73;;;6.13;;
11761;SDS011;5938;47.098;15.474;2023-07-31T21:53:16;7.00;;;6.07;;
11761;SDS011;5938;47.098;15.474;2023-07-31T21:57:32;7.57;;;6.80;;
11761;SDS011;5938;47.098;15.474;2023-07-31T22:01:59;8.20;;;5.90;;
11761;SDS011;5938;47.098;15.474;2023-07-31T22:06:15;8.13;;;5.93;;
11761;SDS011;5938;47.098;15.474;2023-07-31T22:10:28;5.80;;;5.27;;
11761;SDS011;5938;47.098;15.474;2023-07-31T22:14:44;6.70;;;6.10;;
11761;SDS011;5938;47.098;15.474;2023-07-31T22:18:56;6.20;;;5.43;;
11761;SDS011;5938;47.098;15.474;2023-07-31T22:23:07;6.77;;;6.07;;
11761;SDS011;5938;47.098;15.474;2023-07-31T22:27:17;6.57;;;5.93;;
11761;SDS011;5938;47.098;15.474;2023-07-31T22:31:40;5.70;;;4.83;;
11761;SDS011;5938;47.098;15.474;2023-07-31T22:36:07;6.30;;;5.60;;
11761;SDS011;5938;47.098;15.474;2023-07-31T22:40:16;8.57;;;5.70;;
11761;SDS011;5938;47.098;15.474;2023-07-31T22:44:26;5.40;;;5.00;;
11761;SDS011;5938;47.098;15.474;2023-07-31T22:48:46;6.80;;;5.57;;
11761;SDS011;5938;47.098;15.474;2023-07-31T22:52:57;7.87;;;6.03;;
11761;SDS011;5938;47.098;15.474;2023-07-31T22:57:04;6.47;;;5.23;;
11761;SDS011;5938;47.098;15.474;2023-07-31T23:01:30;15.23;;;6.30;;
11761;SDS011;5938;47.098;15.474;2023-07-31T23:05:38;6.07;;;5.50;;
11761;SDS011;5938;47.098;15.474;2023-07-31T23:10:07;6.10;;;5.60;;
11761;SDS011;5938;47.098;15.474;2023-07-31T23:14:14;7.43;;;5.70;;
11761;SDS011;5938;47.098;15.474;2023-07-31T23:18:34;7.10;;;5.80;;
11761;SDS011;5938;47.098;15.474;2023-07-31T23:22:40;5.60;;;5.10;;
11761;SDS011;5938;47.098;15.474;2023-07-31T23:26:48;5.93;;;5.07;;
11761;SDS011;5938;47.098;15.474;2023-07-31T23:30:53;6.00;;;5.40;;
11761;SDS011;5938;47.098;15.474;2023-07-31T23:35:09;6.53;;;5.83;;
11761;SDS011;5938;47.098;15.474;2023-07-31T23:39:14;6.90;;;5.70;;
11761;SDS011;5938;47.098;15.474;2023-07-31T23:43:22;6.10;;;5.50;;
11761;SDS011;5938;47.098;15.474;2023-07-31T23:47:27;6.37;;;5.43;;
11761;SDS011;5938;47.098;15.474;2023-07-31T23:51:33;9.40;;;6.77;;
11761;SDS011;5938;47.098;15.474;2023-07-31T23:55:46;6.60;;;6.00;;
11761;SDS011;5938;47.098;15.474;2023-07-31T23:59:53;8.20;;;5.30;;
